createdAt,value
2022-08-01T14:26:03.388Z,100514.47
2022-08-01T14:28:34.637Z,100512.19
2022-08-01T14:31:10.154Z,100507.41
2022-08-01T14:33:44.085Z,100501.03
2022-08-01T14:36:30.042Z,100501.75
2022-08-01T14:39:14.824Z,100501.94
2022-08-01T14:41:45.704Z,100500.88
2022-08-01T14:44:20.397Z,100498.75
2022-08-01T14:46:57.179Z,100495.63
2022-08-01T14:49:32.568Z,100494.41
2022-08-01T14:52:04.546Z,100497.72
2022-08-01T14:54:37.963Z,100494.63
2022-08-01T14:57:11.483Z,100496.44
2022-08-01T14:59:41.907Z,100493.81
2022-08-01T15:02:18.194Z,100482.47
2022-08-01T15:04:50.334Z,100487.06
2022-08-01T15:07:21.280Z,100487.97
2022-08-01T15:09:52.755Z,100480.72
2022-08-01T15:12:35.634Z,100473.91
2022-08-01T15:15:21.179Z,100473.91
2022-08-01T15:17:52.966Z,100476.34
2022-08-01T15:20:27.517Z,100469.84
2022-08-01T15:23:06.910Z,100466.94
2022-08-01T15:25:44.005Z,100462.47
2022-08-01T15:28:12.891Z,100464.53
2022-08-01T15:30:46.428Z,100456.44
2022-08-01T15:33:18.370Z,100460.16
2022-08-01T15:35:54.978Z,100458.09
2022-08-01T15:38:25.926Z,100451.91
2022-08-01T15:41:03.076Z,100457.66
2022-08-01T15:43:37.058Z,100458.16
2022-08-01T15:46:17.377Z,100458.91
2022-08-01T15:48:49.349Z,100456.97
2022-08-01T15:51:20.216Z,100451.78
2022-08-01T15:53:53.569Z,100458.38
2022-08-01T15:56:26.468Z,100452.16
2022-08-01T15:58:56.661Z,100453.47
2022-08-01T16:01:28.361Z,100451.78
2022-08-01T16:04:04.578Z,100448.13
2022-08-01T16:06:38.474Z,100444.69
2022-08-01T16:09:10.093Z,100440.59
2022-08-01T16:11:51.125Z,100443.31
2022-08-01T16:14:25.170Z,100444.06
2022-08-01T16:16:57.479Z,100439.66
2022-08-01T16:19:31.573Z,100440.38
2022-08-01T16:22:03.533Z,100443.22
2022-08-01T16:24:36.530Z,100442.78
2022-08-01T16:27:11.939Z,100435.88
2022-08-01T16:29:41.990Z,100430.19
2022-08-01T16:32:19.939Z,100431.84
2022-08-01T16:35:08.373Z,100429.34
2022-08-01T16:37:41.492Z,100424.94
2022-08-01T16:40:16.506Z,100424.28
2022-08-01T16:42:46.595Z,100429.59
2022-08-01T16:45:21.351Z,100427.13
2022-08-01T16:47:55.705Z,100420.31
2022-08-01T16:50:30.051Z,100428.06
2022-08-01T16:53:00.411Z,100424.34
2022-08-01T16:55:49.457Z,100422.38
2022-08-01T16:58:27.417Z,100422.78
2022-08-01T17:01:59.775Z,100419.94
2022-08-01T17:04:07.424Z,100415.13
2022-08-01T17:06:42.756Z,100414.25
2022-08-01T17:09:13.092Z,100415.13
2022-08-01T17:11:43.998Z,100418.69
2022-08-01T17:14:11.793Z,100420.66
2022-08-01T17:16:45.332Z,100415.75
2022-08-01T17:19:18.096Z,100415.69
2022-08-01T17:21:51.035Z,100408.75
2022-08-01T17:24:22.267Z,100411.31
2022-08-01T17:27:01.415Z,100414.31
2022-08-01T17:29:43.433Z,100419.31
2022-08-01T17:32:17.412Z,100421.06
2022-08-01T17:34:48.075Z,100425.31
2022-08-01T17:37:20.972Z,100428.00
2022-08-01T17:39:51.123Z,100435.66
2022-08-01T17:42:28.405Z,100431.50
2022-08-01T17:45:03.680Z,100424.06
2022-08-01T17:47:50.399Z,100436.88
2022-08-01T17:50:18.932Z,100435.19
2022-08-01T17:52:49.946Z,100436.72
2022-08-01T17:55:53.453Z,100426.75
2022-08-01T17:58:18.410Z,100434.44
2022-08-01T18:01:14.432Z,100440.50
2022-08-01T18:03:47.655Z,100435.50
2022-08-01T18:06:19.333Z,100437.91
2022-08-01T18:08:56.126Z,100442.38
2022-08-01T18:11:37.153Z,100437.91
2022-08-01T18:14:14.254Z,100444.38
2022-08-01T18:16:46.878Z,100440.69
2022-08-01T18:19:18.594Z,100458.16
2022-08-01T18:21:54.032Z,100452.03
2022-08-01T18:24:26.375Z,100447.13
2022-08-01T18:26:58.796Z,100449.00
2022-08-01T18:29:48.077Z,100453.03
2022-08-01T18:32:23.821Z,100452.16
2022-08-01T18:34:56.340Z,100462.28
2022-08-01T18:37:35.482Z,100460.25
2022-08-01T18:40:20.914Z,100465.47
2022-08-01T18:42:55.783Z,100467.81
2022-08-01T18:45:30.986Z,100475.13
2022-08-01T18:48:02.419Z,100474.31
2022-08-01T18:50:35.573Z,100473.00
2022-08-01T18:53:10.755Z,100471.75
2022-08-01T18:55:39.222Z,100476.19
2022-08-01T18:58:11.712Z,100481.47
2022-08-01T19:00:40.526Z,100487.41
2022-08-01T19:03:16.627Z,100492.69
2022-08-01T19:05:53.424Z,100492.59
2022-08-01T19:08:29.503Z,100493.50
2022-08-01T19:11:02.501Z,100495.91
2022-08-01T19:13:38.423Z,100498.78
2022-08-01T19:16:09.554Z,100506.88
2022-08-01T19:18:42.888Z,100520.69
2022-08-01T19:21:23.611Z,100516.50
2022-08-01T19:24:12.352Z,100523.00
2022-08-01T19:26:54.875Z,100528.72
2022-08-01T19:29:35.295Z,100533.16
2022-08-01T19:32:21.550Z,100536.69
2022-08-01T19:35:03.957Z,100538.28
2022-08-01T19:37:37.724Z,100545.25
2022-08-01T19:40:26.793Z,100538.28
2022-08-01T19:42:59.970Z,100550.94
2022-08-01T19:45:33.403Z,100562.72
2022-08-01T19:48:07.633Z,100561.91
2022-08-01T19:50:46.948Z,100564.34
2022-08-01T19:53:17.962Z,100572.44
2022-08-01T19:55:47.683Z,100571.25
2022-08-01T19:58:27.007Z,100573.22
2022-08-01T20:00:58.348Z,100572.44
2022-08-01T20:03:33.944Z,100577.34
2022-08-01T20:06:03.403Z,100585.91
2022-08-01T20:08:39.896Z,100591.19
2022-08-01T20:11:14.664Z,100596.44
2022-08-01T20:13:45.776Z,100599.75
2022-08-01T20:16:18.927Z,100595.16
2022-08-01T20:18:51.195Z,100594.38
2022-08-01T20:21:26.674Z,100595.97
2022-08-01T20:24:03.290Z,100597.59
2022-08-01T20:26:34.204Z,100601.63
2022-08-01T20:29:08.302Z,100586.53
2022-08-01T20:31:43.220Z,100587.78
2022-08-01T20:34:17.023Z,100591.00
2022-08-01T20:36:54.359Z,100591.44
2022-08-01T20:39:30.186Z,100593.06
2022-08-01T20:42:07.208Z,100594.56
2022-08-01T20:44:40.500Z,100599.47
2022-08-01T20:47:09.241Z,100604.72
2022-08-01T20:49:40.692Z,100606.34
2022-08-01T20:52:16.881Z,100610.44
2022-08-01T20:54:48.499Z,100603.94
2022-08-01T20:57:25.470Z,100609.13
2022-08-01T21:00:07.586Z,100610.78
2022-08-01T21:03:04.822Z,100612.84
2022-08-01T21:05:55.822Z,100613.03
2022-08-01T21:08:43.061Z,100618.94
2022-08-01T21:11:27.137Z,100619.63
2022-08-01T21:14:03.670Z,100621.41
2022-08-01T21:16:45.040Z,100616.72
2022-08-01T21:19:23.809Z,100617.06
2022-08-01T21:22:09.972Z,100609.53
2022-08-01T21:24:58.657Z,100617.47
2022-08-01T21:27:33.732Z,100622.31
2022-08-01T21:30:09.547Z,100612.53
2022-08-01T21:32:42.923Z,100611.28
2022-08-01T21:35:16.482Z,100612.09
2022-08-01T21:37:53.095Z,100605.47
2022-08-01T21:40:25.220Z,100609.50
2022-08-01T21:42:59.807Z,100609.41
2022-08-01T21:45:33.695Z,100607.78
2022-08-01T21:48:04.528Z,100605.63
2022-08-01T21:50:44.931Z,100608.50
2022-08-01T21:53:50.518Z,100607.53
2022-08-01T21:56:32.835Z,100608.31
2022-08-01T21:59:16.004Z,100609.28
2022-08-01T22:01:54.754Z,100606.19
2022-08-01T22:05:23.724Z,100614.84
2022-08-01T22:08:21.393Z,100612.25
2022-08-01T22:11:00.911Z,100609.28
2022-08-01T22:13:34.150Z,100616.09
2022-08-01T22:16:04.480Z,100610.72
2022-08-01T22:18:38.470Z,100608.91
2022-08-01T22:21:11.118Z,100613.28
2022-08-01T22:23:47.290Z,100614.41
2022-08-01T22:26:18.868Z,100605.84
2022-08-01T22:29:01.180Z,100612.28
2022-08-01T22:31:33.948Z,100603.59
2022-08-01T22:34:12.323Z,100601.16
2022-08-01T22:36:51.920Z,100605.97
2022-08-01T22:39:26.753Z,100603.47
2022-08-01T22:42:03.256Z,100601.66
2022-08-01T22:45:08.003Z,100595.81
2022-08-01T22:47:41.237Z,100607.63
2022-08-01T22:50:36.198Z,100595.97
2022-08-01T22:53:28.657Z,100597.66
2022-08-01T22:56:10.902Z,100590.47
2022-08-01T22:58:53.018Z,100593.75
2022-08-01T23:01:31.273Z,100594.81
2022-08-01T23:04:08.174Z,100604.06
2022-08-01T23:06:38.779Z,100597.28
2022-08-01T23:09:08.879Z,100599.78
2022-08-01T23:11:44.527Z,100600.31
2022-08-01T23:14:20.712Z,100592.75
2022-08-01T23:16:55.681Z,100595.53
2022-08-01T23:19:27.505Z,100597.34
2022-08-01T23:22:00.839Z,100598.81
2022-08-01T23:24:37.976Z,100598.91
2022-08-01T23:27:25.653Z,100592.41
2022-08-01T23:30:15.243Z,100596.94
2022-08-01T23:32:48.304Z,100597.06
2022-08-01T23:35:28.417Z,100592.25
2022-08-01T23:38:02.979Z,100595.88
2022-08-01T23:40:34.381Z,100597.22
2022-08-01T23:43:06.407Z,100597.00
2022-08-01T23:46:03.718Z,100593.56
2022-08-01T23:48:38.125Z,100590.38
2022-08-01T23:51:11.357Z,100599.75
2022-08-01T23:53:50.154Z,100591.59
2022-08-01T23:56:27.462Z,100586.69
2022-08-01T23:59:00.467Z,100595.25
